sensor_id;sensor_type;location;lat;lon;timestamp;P1;durP1;ratioP1;P2;durP2;ratioP2
12792;SDS011;6460;42.684;23.260;2023-01-16T00:01:51;35.47;;;20.70;;
12792;SDS011;6460;42.684;23.260;2023-01-16T00:04:20;36.53;;;20.67;;
12792;SDS011;6460;42.684;23.260;2023-01-16T00:06:47;31.60;;;19.50;;
12792;SDS011;6460;42.684;23.260;2023-01-16T00:09:14;35.27;;;20.40;;
12792;SDS011;6460;42.684;23.260;2023-01-16T00:11:41;33.43;;;19.13;;
12792;SDS011;6460;42.684;23.260;2023-01-16T00:14:08;33.53;;;19.67;;
12792;SDS011;6460;42.684;23.260;2023-01-16T00:16:35;35.07;;;18.80;;
12792;SDS011;6460;42.684;23.260;2023-01-16T00:19:02;35.17;;;19.93;;
12792;SDS011;6460;42.684;23.260;2023-01-16T00:21:31;35.60;;;19.87;;
12792;SDS011;6460;42.684;23.260;2023-01-16T00:23:58;37.03;;;19.73;;
12792;SDS011;6460;42.684;23.260;2023-01-16T00:26:26;32.77;;;18.83;;
12792;SDS011;6460;42.684;23.260;2023-01-16T00:28:54;38.03;;;20.03;;
12792;SDS011;6460;42.684;23.260;2023-01-16T00:31:22;33.93;;;19.77;;
12792;SDS011;6460;42.684;23.260;2023-01-16T00:33:49;35.87;;;20.00;;
12792;SDS011;6460;42.684;23.260;2023-01-16T00:36:17;35.27;;;19.60;;
12792;SDS011;6460;42.684;23.260;2023-01-16T00:38:46;34.50;;;18.70;;
12792;SDS011;6460;42.684;23.260;2023-01-16T00:41:13;34.23;;;19.27;;
12792;SDS011;6460;42.684;23.260;2023-01-16T00:43:40;32.47;;;19.40;;
12792;SDS011;6460;42.684;23.260;2023-01-16T00:46:08;31.23;;;19.27;;
12792;SDS011;6460;42.684;23.260;2023-01-16T00:48:35;34.00;;;20.10;;
12792;SDS011;6460;42.684;23.260;2023-01-16T00:51:02;32.53;;;19.20;;
12792;SDS011;6460;42.684;23.260;2023-01-16T00:53:29;32.50;;;19.10;;
12792;SDS011;6460;42.684;23.260;2023-01-16T00:55:58;32.50;;;20.33;;
12792;SDS011;6460;42.684;23.260;2023-01-16T00:58:25;32.00;;;19.07;;
12792;SDS011;6460;42.684;23.260;2023-01-16T01:00:52;31.33;;;20.37;;
12792;SDS011;6460;42.684;23.260;2023-01-16T01:03:19;33.20;;;19.23;;
12792;SDS011;6460;42.684;23.260;2023-01-16T01:05:46;35.20;;;21.13;;
12792;SDS011;6460;42.684;23.260;2023-01-16T01:08:14;32.33;;;19.60;;
12792;SDS011;6460;42.684;23.260;2023-01-16T01:10:41;31.77;;;20.27;;
12792;SDS011;6460;42.684;23.260;2023-01-16T01:13:10;31.13;;;20.23;;
12792;SDS011;6460;42.684;23.260;2023-01-16T01:15:37;32.67;;;19.70;;
12792;SDS011;6460;42.684;23.260;2023-01-16T01:18:04;32.00;;;20.57;;
12792;SDS011;6460;42.684;23.260;2023-01-16T01:20:32;30.53;;;18.83;;
12792;SDS011;6460;42.684;23.260;2023-01-16T01:22:59;31.30;;;18.73;;
12792;SDS011;6460;42.684;23.260;2023-01-16T01:25:26;31.20;;;19.47;;
12792;SDS011;6460;42.684;23.260;2023-01-16T01:27:53;30.27;;;18.73;;
12792;SDS011;6460;42.684;23.260;2023-01-16T01:30:22;29.27;;;18.77;;
12792;SDS011;6460;42.684;23.260;2023-01-16T01:32:49;31.63;;;19.93;;
12792;SDS011;6460;42.684;23.260;2023-01-16T01:35:16;28.00;;;18.00;;
12792;SDS011;6460;42.684;23.260;2023-01-16T01:37:44;31.03;;;19.73;;
12792;SDS011;6460;42.684;23.260;2023-01-16T01:40:12;27.80;;;18.00;;
12792;SDS011;6460;42.684;23.260;2023-01-16T01:42:39;31.03;;;18.67;;
12792;SDS011;6460;42.684;23.260;2023-01-16T01:45:17;29.53;;;19.07;;
12792;SDS011;6460;42.684;23.260;2023-01-16T01:47:49;35.93;;;20.40;;
12792;SDS011;6460;42.684;23.260;2023-01-16T01:50:26;33.17;;;19.80;;
12792;SDS011;6460;42.684;23.260;2023-01-16T01:53:00;28.97;;;17.77;;
12792;SDS011;6460;42.684;23.260;2023-01-16T01:55:32;29.33;;;18.13;;
12792;SDS011;6460;42.684;23.260;2023-01-16T01:58:00;31.73;;;19.97;;
12792;SDS011;6460;42.684;23.260;2023-01-16T02:00:28;29.40;;;19.30;;
12792;SDS011;6460;42.684;23.260;2023-01-16T02:02:58;31.80;;;19.27;;
12792;SDS011;6460;42.684;23.260;2023-01-16T02:05:31;32.07;;;19.00;;
12792;SDS011;6460;42.684;23.260;2023-01-16T02:08:00;27.97;;;18.20;;
12792;SDS011;6460;42.684;23.260;2023-01-16T02:10:32;34.40;;;20.67;;
12792;SDS011;6460;42.684;23.260;2023-01-16T02:13:03;29.50;;;19.07;;
12792;SDS011;6460;42.684;23.260;2023-01-16T02:15:31;29.07;;;18.93;;
12792;SDS011;6460;42.684;23.260;2023-01-16T02:17:59;30.70;;;19.67;;
12792;SDS011;6460;42.684;23.260;2023-01-16T02:20:49;36.97;;;20.70;;
12792;SDS011;6460;42.684;23.260;2023-01-16T02:23:47;36.53;;;19.20;;
12792;SDS011;6460;42.684;23.260;2023-01-16T02:29:40;36.70;;;21.10;;
12792;SDS011;6460;42.684;23.260;2023-01-16T02:32:26;37.57;;;22.40;;
12792;SDS011;6460;42.684;23.260;2023-01-16T02:35:20;36.07;;;21.83;;
12792;SDS011;6460;42.684;23.260;2023-01-16T02:37:54;44.13;;;21.60;;
12792;SDS011;6460;42.684;23.260;2023-01-16T02:40:31;36.13;;;20.40;;
12792;SDS011;6460;42.684;23.260;2023-01-16T02:43:11;44.00;;;22.60;;
12792;SDS011;6460;42.684;23.260;2023-01-16T02:45:52;45.80;;;22.20;;
12792;SDS011;6460;42.684;23.260;2023-01-16T02:48:32;53.67;;;22.83;;
12792;SDS011;6460;42.684;23.260;2023-01-16T02:51:06;40.20;;;20.83;;
12792;SDS011;6460;42.684;23.260;2023-01-16T02:53:42;41.90;;;21.87;;
12792;SDS011;6460;42.684;23.260;2023-01-16T02:56:15;55.47;;;22.43;;
12792;SDS011;6460;42.684;23.260;2023-01-16T02:58:47;39.07;;;21.53;;
12792;SDS011;6460;42.684;23.260;2023-01-16T03:01:17;42.83;;;23.10;;
12792;SDS011;6460;42.684;23.260;2023-01-16T03:03:49;74.50;;;21.87;;
12792;SDS011;6460;42.684;23.260;2023-01-16T03:06:21;54.30;;;23.03;;
12792;SDS011;6460;42.684;23.260;2023-01-16T03:09:03;67.43;;;24.80;;
12792;SDS011;6460;42.684;23.260;2023-01-16T03:11:46;41.87;;;21.63;;
12792;SDS011;6460;42.684;23.260;2023-01-16T03:14:28;49.37;;;21.83;;
12792;SDS011;6460;42.684;23.260;2023-01-16T03:17:10;59.57;;;22.40;;
12792;SDS011;6460;42.684;23.260;2023-01-16T03:19:59;38.70;;;21.80;;
12792;SDS011;6460;42.684;23.260;2023-01-16T03:22:39;45.93;;;23.40;;
12792;SDS011;6460;42.684;23.260;2023-01-16T03:25:18;82.03;;;23.10;;
12792;SDS011;6460;42.684;23.260;2023-01-16T03:27:53;37.73;;;21.83;;
12792;SDS011;6460;42.684;23.260;2023-01-16T03:30:26;50.53;;;23.63;;
12792;SDS011;6460;42.684;23.260;2023-01-16T03:32:59;81.70;;;21.60;;
12792;SDS011;6460;42.684;23.260;2023-01-16T03:35:32;37.67;;;20.63;;
12792;SDS011;6460;42.684;23.260;2023-01-16T03:38:04;47.90;;;22.63;;
12792;SDS011;6460;42.684;23.260;2023-01-16T03:40:35;62.50;;;24.80;;
12792;SDS011;6460;42.684;23.260;2023-01-16T03:43:08;36.37;;;19.73;;
12792;SDS011;6460;42.684;23.260;2023-01-16T03:45:39;40.73;;;20.40;;
12792;SDS011;6460;42.684;23.260;2023-01-16T03:48:11;54.60;;;21.30;;
12792;SDS011;6460;42.684;23.260;2023-01-16T03:50:47;37.50;;;19.13;;
12792;SDS011;6460;42.684;23.260;2023-01-16T03:53:18;40.57;;;20.70;;
12792;SDS011;6460;42.684;23.260;2023-01-16T03:55:51;44.53;;;19.77;;
12792;SDS011;6460;42.684;23.260;2023-01-16T03:58:24;43.43;;;21.63;;
12792;SDS011;6460;42.684;23.260;2023-01-16T04:00:58;50.30;;;21.87;;
12792;SDS011;6460;42.684;23.260;2023-01-16T04:03:33;89.47;;;23.97;;
12792;SDS011;6460;42.684;23.260;2023-01-16T04:06:11;46.70;;;21.93;;
12792;SDS011;6460;42.684;23.260;2023-01-16T04:08:43;41.73;;;19.97;;
12792;SDS011;6460;42.684;23.260;2023-01-16T04:11:12;86.00;;;25.47;;
12792;SDS011;6460;42.684;23.260;2023-01-16T04:13:42;70.93;;;23.27;;
12792;SDS011;6460;42.684;23.260;2023-01-16T04:16:12;41.50;;;19.43;;
12792;SDS011;6460;42.684;23.260;2023-01-16T04:18:43;53.90;;;20.10;;
12792;SDS011;6460;42.684;23.260;2023-01-16T04:21:13;44.27;;;20.80;;
12792;SDS011;6460;42.684;23.260;2023-01-16T04:23:41;67.47;;;21.60;;
12792;SDS011;6460;42.684;23.260;2023-01-16T04:26:09;39.70;;;19.70;;
12792;SDS011;6460;42.684;23.260;2023-01-16T04:28:36;39.20;;;20.27;;
12792;SDS011;6460;42.684;23.260;2023-01-16T04:31:03;41.30;;;20.80;;
12792;SDS011;6460;42.684;23.260;2023-01-16T04:33:31;61.53;;;19.43;;
12792;SDS011;6460;42.684;23.260;2023-01-16T04:35:58;59.93;;;22.17;;
12792;SDS011;6460;42.684;23.260;2023-01-16T04:38:26;35.10;;;20.00;;
12792;SDS011;6460;42.684;23.260;2023-01-16T04:40:53;35.53;;;18.63;;
12792;SDS011;6460;42.684;23.260;2023-01-16T04:43:20;37.20;;;19.73;;
12792;SDS011;6460;42.684;23.260;2023-01-16T04:45:47;35.53;;;19.67;;
12792;SDS011;6460;42.684;23.260;2023-01-16T04:48:15;34.40;;;17.93;;
12792;SDS011;6460;42.684;23.260;2023-01-16T04:50:42;37.60;;;19.20;;
12792;SDS011;6460;42.684;23.260;2023-01-16T04:53:09;36.90;;;18.57;;
12792;SDS011;6460;42.684;23.260;2023-01-16T04:55:38;36.57;;;19.87;;
12792;SDS011;6460;42.684;23.260;2023-01-16T04:58:05;36.70;;;19.87;;
12792;SDS011;6460;42.684;23.260;2023-01-16T05:00:32;35.07;;;20.07;;
12792;SDS011;6460;42.684;23.260;2023-01-16T05:02:59;37.23;;;19.20;;
12792;SDS011;6460;42.684;23.260;2023-01-16T05:05:26;33.23;;;19.40;;
12792;SDS011;6460;42.684;23.260;2023-01-16T05:07:54;33.10;;;18.20;;
12792;SDS011;6460;42.684;23.260;2023-01-16T05:10:35;44.80;;;18.67;;
12792;SDS011;6460;42.684;23.260;2023-01-16T05:13:03;56.23;;;23.97;;
12792;SDS011;6460;42.684;23.260;2023-01-16T05:15:30;39.10;;;20.07;;
12792;SDS011;6460;42.684;23.260;2023-01-16T05:17:57;69.53;;;21.70;;
12792;SDS011;6460;42.684;23.260;2023-01-16T05:20:25;45.00;;;22.33;;
12792;SDS011;6460;42.684;23.260;2023-01-16T05:22:52;59.33;;;22.77;;
12792;SDS011;6460;42.684;23.260;2023-01-16T05:25:19;41.13;;;19.47;;
12792;SDS011;6460;42.684;23.260;2023-01-16T05:27:48;37.47;;;19.17;;
12792;SDS011;6460;42.684;23.260;2023-01-16T05:30:18;43.87;;;20.43;;
12792;SDS011;6460;42.684;23.260;2023-01-16T05:32:45;36.57;;;20.90;;
12792;SDS011;6460;42.684;23.260;2023-01-16T05:35:12;40.73;;;20.93;;
12792;SDS011;6460;42.684;23.260;2023-01-16T05:37:41;41.20;;;21.50;;
12792;SDS011;6460;42.684;23.260;2023-01-16T05:40:08;40.30;;;21.40;;
12792;SDS011;6460;42.684;23.260;2023-01-16T05:42:36;37.40;;;20.43;;
12792;SDS011;6460;42.684;23.260;2023-01-16T05:45:04;34.60;;;18.57;;
12792;SDS011;6460;42.684;23.260;2023-01-16T05:47:33;33.97;;;19.13;;
12792;SDS011;6460;42.684;23.260;2023-01-16T05:50:01;36.50;;;19.93;;
12792;SDS011;6460;42.684;23.260;2023-01-16T05:52:29;32.23;;;18.00;;
12792;SDS011;6460;42.684;23.260;2023-01-16T05:54:56;31.47;;;18.60;;
12792;SDS011;6460;42.684;23.260;2023-01-16T05:57:23;33.83;;;19.13;;
12792;SDS011;6460;42.684;23.260;2023-01-16T05:59:50;39.37;;;19.37;;
12792;SDS011;6460;42.684;23.260;2023-01-16T06:20:21;34.77;;;19.93;;
12792;SDS011;6460;42.684;23.260;2023-01-16T06:22:49;30.10;;;18.07;;
12792;SDS011;6460;42.684;23.260;2023-01-16T06:25:16;33.07;;;19.63;;
12792;SDS011;6460;42.684;23.260;2023-01-16T06:27:46;39.80;;;20.20;;
12792;SDS011;6460;42.684;23.260;2023-01-16T06:30:15;32.67;;;19.60;;
12792;SDS011;6460;42.684;23.260;2023-01-16T06:32:43;33.80;;;18.73;;
12792;SDS011;6460;42.684;23.260;2023-01-16T06:35:13;32.07;;;18.27;;
12792;SDS011;6460;42.684;23.260;2023-01-16T06:37:41;30.00;;;19.10;;
12792;SDS011;6460;42.684;23.260;2023-01-16T06:40:09;29.30;;;17.90;;
12792;SDS011;6460;42.684;23.260;2023-01-16T06:42:36;33.93;;;19.10;;
12792;SDS011;6460;42.684;23.260;2023-01-16T06:45:04;32.07;;;20.07;;
12792;SDS011;6460;42.684;23.260;2023-01-16T06:47:32;33.87;;;19.90;;
12792;SDS011;6460;42.684;23.260;2023-01-16T06:49:59;33.10;;;19.50;;
12792;SDS011;6460;42.684;23.260;2023-01-16T06:52:26;34.07;;;20.23;;
12792;SDS011;6460;42.684;23.260;2023-01-16T06:54:55;31.27;;;19.47;;
12792;SDS011;6460;42.684;23.260;2023-01-16T06:57:22;31.07;;;18.33;;
12792;SDS011;6460;42.684;23.260;2023-01-16T06:59:49;31.80;;;18.90;;
12792;SDS011;6460;42.684;23.260;2023-01-16T07:02:16;30.47;;;18.50;;
12792;SDS011;6460;42.684;23.260;2023-01-16T07:04:43;36.17;;;19.93;;
12792;SDS011;6460;42.684;23.260;2023-01-16T07:07:10;32.63;;;19.90;;
12792;SDS011;6460;42.684;23.260;2023-01-16T07:09:37;45.27;;;25.67;;
12792;SDS011;6460;42.684;23.260;2023-01-16T07:12:06;42.83;;;25.50;;
12792;SDS011;6460;42.684;23.260;2023-01-16T07:14:33;37.83;;;22.27;;
12792;SDS011;6460;42.684;23.260;2023-01-16T07:17:17;43.13;;;25.90;;
12792;SDS011;6460;42.684;23.260;2023-01-16T07:20:02;39.57;;;23.10;;
12792;SDS011;6460;42.684;23.260;2023-01-16T07:22:47;37.67;;;23.17;;
12792;SDS011;6460;42.684;23.260;2023-01-16T07:25:15;39.67;;;25.03;;
12792;SDS011;6460;42.684;23.260;2023-01-16T07:27:45;44.47;;;25.67;;
12792;SDS011;6460;42.684;23.260;2023-01-16T07:30:14;43.13;;;24.53;;
12792;SDS011;6460;42.684;23.260;2023-01-16T07:32:41;40.50;;;23.27;;
12792;SDS011;6460;42.684;23.260;2023-01-16T07:35:09;38.43;;;22.33;;
12792;SDS011;6460;42.684;23.260;2023-01-16T07:37:36;42.53;;;24.63;;
12792;SDS011;6460;42.684;23.260;2023-01-16T07:40:04;41.73;;;24.80;;
12792;SDS011;6460;42.684;23.260;2023-01-16T07:42:32;48.40;;;25.17;;
12792;SDS011;6460;42.684;23.260;2023-01-16T07:45:00;49.10;;;29.00;;
12792;SDS011;6460;42.684;23.260;2023-01-16T07:47:26;47.13;;;26.77;;
12792;SDS011;6460;42.684;23.260;2023-01-16T07:49:53;58.23;;;29.50;;
12792;SDS011;6460;42.684;23.260;2023-01-16T07:52:21;52.43;;;28.37;;
12792;SDS011;6460;42.684;23.260;2023-01-16T07:54:48;47.80;;;26.97;;
12792;SDS011;6460;42.684;23.260;2023-01-16T07:57:15;56.37;;;29.60;;
12792;SDS011;6460;42.684;23.260;2023-01-16T07:59:42;54.87;;;32.00;;
12792;SDS011;6460;42.684;23.260;2023-01-16T08:02:11;58.60;;;32.70;;
12792;SDS011;6460;42.684;23.260;2023-01-16T08:04:39;55.50;;;31.60;;
12792;SDS011;6460;42.684;23.260;2023-01-16T08:07:06;54.97;;;30.40;;
12792;SDS011;6460;42.684;23.260;2023-01-16T08:09:33;53.47;;;31.60;;
12792;SDS011;6460;42.684;23.260;2023-01-16T08:12:00;52.23;;;30.37;;
12792;SDS011;6460;42.684;23.260;2023-01-16T08:14:27;55.00;;;30.27;;
12792;SDS011;6460;42.684;23.260;2023-01-16T08:16:54;65.00;;;34.63;;
12792;SDS011;6460;42.684;23.260;2023-01-16T08:19:23;68.70;;;36.20;;
12792;SDS011;6460;42.684;23.260;2023-01-16T08:21:50;56.13;;;32.20;;
12792;SDS011;6460;42.684;23.260;2023-01-16T08:24:17;53.47;;;30.77;;
12792;SDS011;6460;42.684;23.260;2023-01-16T08:26:44;52.27;;;30.97;;
12792;SDS011;6460;42.684;23.260;2023-01-16T08:29:11;51.73;;;29.20;;
12792;SDS011;6460;42.684;23.260;2023-01-16T08:31:38;53.37;;;30.73;;
12792;SDS011;6460;42.684;23.260;2023-01-16T08:34:05;52.70;;;28.53;;
12792;SDS011;6460;42.684;23.260;2023-01-16T08:36:33;49.13;;;28.47;;
12792;SDS011;6460;42.684;23.260;2023-01-16T08:39:00;50.27;;;30.00;;
12792;SDS011;6460;42.684;23.260;2023-01-16T08:41:27;51.70;;;29.50;;
12792;SDS011;6460;42.684;23.260;2023-01-16T08:44:11;57.47;;;32.63;;
12792;SDS011;6460;42.684;23.260;2023-01-16T08:46:57;62.83;;;34.37;;
12792;SDS011;6460;42.684;23.260;2023-01-16T08:49:44;62.03;;;34.90;;
12792;SDS011;6460;42.684;23.260;2023-01-16T08:52:30;76.17;;;39.20;;
12792;SDS011;6460;42.684;23.260;2023-01-16T08:54:59;75.63;;;42.17;;
12792;SDS011;6460;42.684;23.260;2023-01-16T08:57:27;71.97;;;39.77;;
12792;SDS011;6460;42.684;23.260;2023-01-16T08:59:55;69.50;;;40.20;;
12792;SDS011;6460;42.684;23.260;2023-01-16T09:02:22;74.20;;;40.93;;
12792;SDS011;6460;42.684;23.260;2023-01-16T09:04:50;69.07;;;40.37;;
12792;SDS011;6460;42.684;23.260;2023-01-16T09:07:19;72.93;;;38.63;;
12792;SDS011;6460;42.684;23.260;2023-01-16T09:09:48;68.90;;;38.63;;
12792;SDS011;6460;42.684;23.260;2023-01-16T09:12:16;77.93;;;42.57;;
12792;SDS011;6460;42.684;23.260;2023-01-16T09:15:00;71.43;;;41.27;;
12792;SDS011;6460;42.684;23.260;2023-01-16T09:17:27;74.93;;;41.63;;
12792;SDS011;6460;42.684;23.260;2023-01-16T09:19:55;67.37;;;40.07;;
12792;SDS011;6460;42.684;23.260;2023-01-16T09:22:22;68.80;;;41.80;;
12792;SDS011;6460;42.684;23.260;2023-01-16T09:24:51;75.67;;;41.47;;
12792;SDS011;6460;42.684;23.260;2023-01-16T09:27:18;73.40;;;42.67;;
12792;SDS011;6460;42.684;23.260;2023-01-16T09:29:46;70.00;;;41.93;;
12792;SDS011;6460;42.684;23.260;2023-01-16T09:32:14;72.93;;;41.37;;
12792;SDS011;6460;42.684;23.260;2023-01-16T09:34:43;72.40;;;40.73;;
12792;SDS011;6460;42.684;23.260;2023-01-16T09:37:13;71.43;;;40.37;;
12792;SDS011;6460;42.684;23.260;2023-01-16T09:39:41;64.00;;;39.40;;
12792;SDS011;6460;42.684;23.260;2023-01-16T09:42:15;71.83;;;38.93;;
12792;SDS011;6460;42.684;23.260;2023-01-16T09:45:15;67.17;;;38.80;;
12792;SDS011;6460;42.684;23.260;2023-01-16T09:47:45;71.80;;;39.80;;
12792;SDS011;6460;42.684;23.260;2023-01-16T09:50:20;64.23;;;36.57;;
12792;SDS011;6460;42.684;23.260;2023-01-16T09:52:55;63.13;;;36.50;;
12792;SDS011;6460;42.684;23.260;2023-01-16T09:55:44;61.63;;;36.13;;
12792;SDS011;6460;42.684;23.260;2023-01-16T09:58:31;66.17;;;37.77;;
12792;SDS011;6460;42.684;23.260;2023-01-16T10:01:03;58.53;;;34.50;;
12792;SDS011;6460;42.684;23.260;2023-01-16T10:03:35;71.60;;;36.97;;
12792;SDS011;6460;42.684;23.260;2023-01-16T10:06:12;64.10;;;36.03;;
12792;SDS011;6460;42.684;23.260;2023-01-16T10:08:51;69.10;;;36.70;;
12792;SDS011;6460;42.684;23.260;2023-01-16T10:11:28;64.83;;;35.83;;
12792;SDS011;6460;42.684;23.260;2023-01-16T10:14:08;55.97;;;34.73;;
12792;SDS011;6460;42.684;23.260;2023-01-16T10:16:52;58.23;;;33.47;;
12792;SDS011;6460;42.684;23.260;2023-01-16T10:19:32;55.90;;;32.10;;
12792;SDS011;6460;42.684;23.260;2023-01-16T10:22:10;49.67;;;31.37;;
12792;SDS011;6460;42.684;23.260;2023-01-16T10:24:51;53.87;;;32.67;;
12792;SDS011;6460;42.684;23.260;2023-01-16T10:27:28;54.07;;;31.47;;
12792;SDS011;6460;42.684;23.260;2023-01-16T10:30:09;56.00;;;33.07;;
12792;SDS011;6460;42.684;23.260;2023-01-16T10:32:42;49.33;;;31.43;;
12792;SDS011;6460;42.684;23.260;2023-01-16T10:35:14;57.00;;;32.30;;
12792;SDS011;6460;42.684;23.260;2023-01-16T10:37:47;55.73;;;31.60;;
12792;SDS011;6460;42.684;23.260;2023-01-16T10:40:17;51.47;;;31.73;;
12792;SDS011;6460;42.684;23.260;2023-01-16T10:42:49;55.77;;;32.97;;
12792;SDS011;6460;42.684;23.260;2023-01-16T10:45:48;54.83;;;30.57;;
12792;SDS011;6460;42.684;23.260;2023-01-16T10:48:41;51.20;;;30.83;;
12792;SDS011;6460;42.684;23.260;2023-01-16T10:51:26;56.90;;;33.43;;
12792;SDS011;6460;42.684;23.260;2023-01-16T10:53:53;42.43;;;27.90;;
12792;SDS011;6460;42.684;23.260;2023-01-16T10:56:20;38.10;;;24.70;;
12792;SDS011;6460;42.684;23.260;2023-01-16T10:58:48;38.27;;;23.97;;
12792;SDS011;6460;42.684;23.260;2023-01-16T11:01:30;35.63;;;23.00;;
12792;SDS011;6460;42.684;23.260;2023-01-16T11:04:04;34.90;;;22.53;;
12792;SDS011;6460;42.684;23.260;2023-01-16T11:06:32;38.97;;;23.17;;
12792;SDS011;6460;42.684;23.260;2023-01-16T11:09:01;32.20;;;20.77;;
12792;SDS011;6460;42.684;23.260;2023-01-16T11:11:33;30.17;;;19.77;;
12792;SDS011;6460;42.684;23.260;2023-01-16T11:14:21;32.20;;;19.97;;
12792;SDS011;6460;42.684;23.260;2023-01-16T11:17:22;25.30;;;17.67;;
12792;SDS011;6460;42.684;23.260;2023-01-16T11:20:11;27.20;;;18.53;;
12792;SDS011;6460;42.684;23.260;2023-01-16T11:22:41;27.87;;;18.93;;
12792;SDS011;6460;42.684;23.260;2023-01-16T11:25:14;29.50;;;20.30;;
12792;SDS011;6460;42.684;23.260;2023-01-16T11:35:32;28.37;;;19.10;;
12792;SDS011;6460;42.684;23.260;2023-01-16T11:38:01;27.47;;;19.47;;
12792;SDS011;6460;42.684;23.260;2023-01-16T11:40:31;28.90;;;20.33;;
12792;SDS011;6460;42.684;23.260;2023-01-16T11:43:06;30.60;;;19.83;;
12792;SDS011;6460;42.684;23.260;2023-01-16T11:45:56;25.83;;;18.37;;
12792;SDS011;6460;42.684;23.260;2023-01-16T11:48:36;28.40;;;19.07;;
12792;SDS011;6460;42.684;23.260;2023-01-16T11:51:08;24.10;;;17.07;;
12792;SDS011;6460;42.684;23.260;2023-01-16T11:53:39;23.93;;;17.00;;
12792;SDS011;6460;42.684;23.260;2023-01-16T11:56:23;25.10;;;18.00;;
12792;SDS011;6460;42.684;23.260;2023-01-16T11:59:12;25.13;;;17.70;;
12792;SDS011;6460;42.684;23.260;2023-01-16T12:02:02;26.30;;;18.67;;
12792;SDS011;6460;42.684;23.260;2023-01-16T12:04:45;25.40;;;17.17;;
12792;SDS011;6460;42.684;23.260;2023-01-16T12:07:33;25.50;;;17.80;;
12792;SDS011;6460;42.684;23.260;2023-01-16T12:10:14;28.90;;;18.50;;
12792;SDS011;6460;42.684;23.260;2023-01-16T12:12:51;33.33;;;20.23;;
12792;SDS011;6460;42.684;23.260;2023-01-16T12:15:43;30.13;;;19.13;;
12792;SDS011;6460;42.684;23.260;2023-01-16T12:18:24;25.40;;;17.87;;
12792;SDS011;6460;42.684;23.260;2023-01-16T12:20:59;21.53;;;15.37;;
12792;SDS011;6460;42.684;23.260;2023-01-16T12:23:44;23.97;;;16.20;;
12792;SDS011;6460;42.684;23.260;2023-01-16T12:26:21;23.03;;;16.47;;
12792;SDS011;6460;42.684;23.260;2023-01-16T12:28:57;26.00;;;17.70;;
12792;SDS011;6460;42.684;23.260;2023-01-16T12:31:46;22.60;;;16.73;;
12792;SDS011;6460;42.684;23.260;2023-01-16T12:34:47;22.37;;;16.13;;
12792;SDS011;6460;42.684;23.260;2023-01-16T12:37:31;20.87;;;15.70;;
12792;SDS011;6460;42.684;23.260;2023-01-16T12:43:06;24.23;;;16.27;;
12792;SDS011;6460;42.684;23.260;2023-01-16T12:45:49;21.67;;;15.73;;
12792;SDS011;6460;42.684;23.260;2023-01-16T12:48:40;23.27;;;16.47;;
12792;SDS011;6460;42.684;23.260;2023-01-16T12:51:19;23.93;;;16.73;;
12792;SDS011;6460;42.684;23.260;2023-01-16T13:01:43;22.60;;;15.77;;
12792;SDS011;6460;42.684;23.260;2023-01-16T13:04:42;24.73;;;15.83;;
12792;SDS011;6460;42.684;23.260;2023-01-16T13:07:43;24.30;;;17.10;;
12792;SDS011;6460;42.684;23.260;2023-01-16T13:24:18;22.70;;;15.37;;
12792;SDS011;6460;42.684;23.260;2023-01-16T13:27:05;24.17;;;15.57;;
12792;SDS011;6460;42.684;23.260;2023-01-16T13:29:50;26.80;;;16.10;;
12792;SDS011;6460;42.684;23.260;2023-01-16T13:32:54;25.67;;;16.03;;
12792;SDS011;6460;42.684;23.260;2023-01-16T13:35:45;22.50;;;14.07;;
12792;SDS011;6460;42.684;23.260;2023-01-16T13:41:19;20.13;;;14.33;;
12792;SDS011;6460;42.684;23.260;2023-01-16T13:44:02;21.50;;;14.97;;
12792;SDS011;6460;42.684;23.260;2023-01-16T13:46:51;22.97;;;14.20;;
12792;SDS011;6460;42.684;23.260;2023-01-16T13:54:52;25.23;;;16.27;;
12792;SDS011;6460;42.684;23.260;2023-01-16T14:00:10;23.03;;;14.77;;
12792;SDS011;6460;42.684;23.260;2023-01-16T14:02:45;22.97;;;14.27;;
12792;SDS011;6460;42.684;23.260;2023-01-16T14:05:44;53.17;;;39.00;;
12792;SDS011;6460;42.684;23.260;2023-01-16T14:08:47;24.33;;;16.00;;
12792;SDS011;6460;42.684;23.260;2023-01-16T14:11:39;20.83;;;13.40;;
12792;SDS011;6460;42.684;23.260;2023-01-16T14:14:33;17.37;;;12.57;;
12792;SDS011;6460;42.684;23.260;2023-01-16T14:20:43;20.53;;;14.47;;
12792;SDS011;6460;42.684;23.260;2023-01-16T14:23:21;23.20;;;15.60;;
12792;SDS011;6460;42.684;23.260;2023-01-16T14:26:08;19.97;;;14.57;;
12792;SDS011;6460;42.684;23.260;2023-01-16T14:28:45;21.90;;;14.33;;
12792;SDS011;6460;42.684;23.260;2023-01-16T14:31:18;24.37;;;14.70;;
12792;SDS011;6460;42.684;23.260;2023-01-16T14:34:09;21.63;;;14.00;;
12792;SDS011;6460;42.684;23.260;2023-01-16T14:36:43;21.37;;;14.70;;
12792;SDS011;6460;42.684;23.260;2023-01-16T14:39:25;24.63;;;14.53;;
12792;SDS011;6460;42.684;23.260;2023-01-16T14:41:55;21.37;;;14.53;;
12792;SDS011;6460;42.684;23.260;2023-01-16T14:45:01;25.20;;;15.37;;
12792;SDS011;6460;42.684;23.260;2023-01-16T14:48:12;23.40;;;14.90;;
12792;SDS011;6460;42.684;23.260;2023-01-16T14:51:01;19.43;;;12.97;;
12792;SDS011;6460;42.684;23.260;2023-01-16T14:54:10;19.47;;;12.30;;
12792;SDS011;6460;42.684;23.260;2023-01-16T14:57:01;19.20;;;13.33;;
12792;SDS011;6460;42.684;23.260;2023-01-16T14:59:33;18.37;;;13.50;;
12792;SDS011;6460;42.684;23.260;2023-01-16T15:02:05;19.80;;;13.73;;
12792;SDS011;6460;42.684;23.260;2023-01-16T15:04:56;20.10;;;13.03;;
12792;SDS011;6460;42.684;23.260;2023-01-16T15:07:31;20.47;;;13.63;;
12792;SDS011;6460;42.684;23.260;2023-01-16T15:10:04;22.30;;;15.73;;
12792;SDS011;6460;42.684;23.260;2023-01-16T15:12:37;22.03;;;14.60;;
12792;SDS011;6460;42.684;23.260;2023-01-16T15:15:15;21.80;;;15.07;;
12792;SDS011;6460;42.684;23.260;2023-01-16T15:17:46;23.83;;;15.50;;
12792;SDS011;6460;42.684;23.260;2023-01-16T15:20:33;20.83;;;15.47;;
12792;SDS011;6460;42.684;23.260;2023-01-16T15:23:20;22.73;;;14.70;;
12792;SDS011;6460;42.684;23.260;2023-01-16T15:26:04;23.93;;;16.53;;
12792;SDS011;6460;42.684;23.260;2023-01-16T15:28:53;22.50;;;15.57;;
12792;SDS011;6460;42.684;23.260;2023-01-16T15:31:31;26.77;;;16.90;;
12792;SDS011;6460;42.684;23.260;2023-01-16T15:34:05;22.00;;;15.43;;
12792;SDS011;6460;42.684;23.260;2023-01-16T15:39:24;34.47;;;24.00;;
12792;SDS011;6460;42.684;23.260;2023-01-16T15:41:59;23.33;;;16.37;;
12792;SDS011;6460;42.684;23.260;2023-01-16T15:44:50;23.07;;;16.43;;
12792;SDS011;6460;42.684;23.260;2023-01-16T15:51:05;21.97;;;15.80;;
12792;SDS011;6460;42.684;23.260;2023-01-16T15:53:51;23.83;;;16.20;;
12792;SDS011;6460;42.684;23.260;2023-01-16T15:56:38;26.47;;;16.60;;
12792;SDS011;6460;42.684;23.260;2023-01-16T15:59:29;22.30;;;16.10;;
12792;SDS011;6460;42.684;23.260;2023-01-16T16:02:19;26.47;;;17.10;;
12792;SDS011;6460;42.684;23.260;2023-01-16T16:05:01;24.83;;;16.83;;
12792;SDS011;6460;42.684;23.260;2023-01-16T16:07:32;23.00;;;16.33;;
12792;SDS011;6460;42.684;23.260;2023-01-16T16:10:11;28.10;;;17.37;;
12792;SDS011;6460;42.684;23.260;2023-01-16T16:13:07;29.07;;;18.43;;
12792;SDS011;6460;42.684;23.260;2023-01-16T16:18:13;39.03;;;26.87;;
12792;SDS011;6460;42.684;23.260;2023-01-16T16:21:02;52.90;;;33.60;;